Time;durP1;ratioP1;P1;durP2;ratioP2;P2;SDS_P1;SDS_P2;PMS_P1;PMS_P2;Temp;Humidity;BMP_temperature;BMP_pressure;BME280_temperature;BME280_humidity;BME280_pressure;Samples;Min_cycle;Max_cycle;Signal;HPM_P1;HPM_P2
2021/05/19 00:01:47;;;;;;;9.27;8.27;;;;;;;;;;4985966;28;21061;-61
2021/05/19 00:04:15;;;;;;;10.43;8.53;;;;;;;;;;4967954;28;20265;-60
2021/05/19 00:06:42;;;;;;;10.23;8.23;;;;;;;;;;4989308;28;20242;-62
2021/05/19 00:09:10;;;;;;;13.83;8.40;;;;;;;;;;4969677;28;20195;-63
2021/05/19 00:11:37;;;;;;;10.83;8.83;;;;;;;;;;4986516;28;20227;-60
2021/05/19 00:14:04;;;;;;;12.60;9.07;;;;;;;;;;4986346;28;20246;-61
2021/05/19 00:16:30;;;;;;;9.63;8.37;;;;;;;;;;4977731;28;20181;-62
2021/05/19 00:19:00;;;;;;;10.97;9.13;;;;;;;;;;4969602;28;20730;-59
2021/05/19 00:21:28;;;;;;;11.37;9.40;;;;;;;;;;4983762;28;20207;-60
2021/05/19 00:23:53;;;;;;;12.40;9.60;;;;;;;;;;4985626;28;20207;-61
2021/05/19 00:26:20;;;;;;;11.00;9.40;;;;;;;;;;4989373;28;20184;-63
2021/05/19 00:28:51;;;;;;;12.43;9.53;;;;;;;;;;4967127;28;20676;-61
2021/05/19 00:31:19;;;;;;;14.43;10.40;;;;;;;;;;4984570;28;20196;-62
2021/05/19 00:33:45;;;;;;;12.57;10.30;;;;;;;;;;4971217;28;20562;-63
2021/05/19 00:36:12;;;;;;;13.40;10.77;;;;;;;;;;4988372;28;20191;-60
2021/05/19 00:38:40;;;;;;;12.63;10.97;;;;;;;;;;4969426;28;20184;-61
2021/05/19 00:41:10;;;;;;;13.40;11.13;;;;;;;;;;4984612;28;20761;-62
2021/05/19 00:43:37;;;;;;;17.43;10.90;;;;;;;;;;4987334;28;20212;-64
2021/05/19 00:46:05;;;;;;;14.27;11.23;;;;;;;;;;4987784;28;20275;-62
2021/05/19 00:48:33;;;;;;;13.37;11.00;;;;;;;;;;4967861;28;20219;-63
2021/05/19 00:50:58;;;;;;;14.43;11.40;;;;;;;;;;4985582;28;20215;-62
2021/05/19 00:53:29;;;;;;;13.60;10.77;;;;;;;;;;4985140;28;20256;-62
2021/05/19 00:55:55;;;;;;;16.43;11.73;;;;;;;;;;4988858;28;20679;-60
2021/05/19 00:58:23;;;;;;;16.17;11.30;;;;;;;;;;4985553;28;20192;-60
2021/05/19 01:00:48;;;;;;;12.77;11.07;;;;;;;;;;4986237;28;20267;-62
2021/05/19 01:03:18;;;;;;;14.67;11.03;;;;;;;;;;4984724;28;20311;-59
2021/05/19 01:05:53;;;;;;;13.77;11.00;;;;;;;;;;4982450;28;20203;-59
2021/05/19 01:11:13;;;;;;;15.77;11.60;;;;;;;;;;5012497;23;20240;-63
2021/05/19 01:13:44;;;;;;;15.93;10.83;;;;;;;;;;5045934;28;20691;-60
2021/05/19 01:16:11;;;;;;;14.27;10.80;;;;;;;;;;5061070;28;20185;-63
2021/05/19 01:18:40;;;;;;;13.13;10.47;;;;;;;;;;5049410;28;20190;-62
2021/05/19 01:21:07;;;;;;;13.67;10.03;;;;;;;;;;5049519;28;20701;-60
2021/05/19 01:23:33;;;;;;;12.47;10.17;;;;;;;;;;5048569;28;20269;-62
2021/05/19 01:26:03;;;;;;;12.00;10.40;;;;;;;;;;5049206;28;20272;-60
2021/05/19 01:28:33;;;;;;;12.40;10.27;;;;;;;;;;5033544;28;20220;-62
2021/05/19 01:30:59;;;;;;;14.70;11.37;;;;;;;;;;5044005;28;20583;-60
2021/05/19 01:33:27;;;;;;;12.30;10.07;;;;;;;;;;5045164;28;20189;-59
2021/05/19 01:35:54;;;;;;;18.63;10.47;;;;;;;;;;5044554;28;20251;-60
2021/05/19 01:38:21;;;;;;;11.20;10.00;;;;;;;;;;5043532;28;20221;-60
2021/05/19 01:40:49;;;;;;;16.43;10.97;;;;;;;;;;5038701;28;20280;-63
2021/05/19 01:43:17;;;;;;;16.27;11.23;;;;;;;;;;5049425;28;20186;-61
2021/05/19 01:45:42;;;;;;;12.83;10.30;;;;;;;;;;5045689;28;20190;-60
2021/05/19 01:48:13;;;;;;;12.47;9.90;;;;;;;;;;5047100;28;20365;-63
2021/05/19 01:50:40;;;;;;;15.60;11.00;;;;;;;;;;5048229;28;20202;-59
2021/05/19 01:53:06;;;;;;;10.97;9.77;;;;;;;;;;5046014;28;20221;-59
2021/05/19 01:55:36;;;;;;;13.40;10.30;;;;;;;;;;5045989;28;20209;-59
2021/05/19 01:58:04;;;;;;;12.50;9.77;;;;;;;;;;5047268;28;20194;-63
2021/05/19 02:00:31;;;;;;;16.90;9.77;;;;;;;;;;5047785;28;20244;-61
2021/05/19 02:03:05;;;;;;;13.53;10.03;;;;;;;;;;5049056;28;20217;-60
2021/05/19 02:05:36;;;;;;;12.80;9.87;;;;;;;;;;5046988;28;20196;-60
2021/05/19 02:08:06;;;;;;;13.53;10.17;;;;;;;;;;5040355;28;20284;-60
2021/05/19 02:10:32;;;;;;;13.50;9.67;;;;;;;;;;5057903;28;20229;-61
2021/05/19 02:13:01;;;;;;;11.97;9.63;;;;;;;;;;5052831;28;20186;-59
2021/05/19 02:15:31;;;;;;;14.63;10.40;;;;;;;;;;5050326;28;20201;-61
2021/05/19 02:18:01;;;;;;;12.67;9.53;;;;;;;;;;5051569;28;20270;-62
2021/05/19 02:20:27;;;;;;;11.63;9.20;;;;;;;;;;5049911;28;20292;-59
2021/05/19 02:22:52;;;;;;;10.03;8.60;;;;;;;;;;5043799;28;20263;-61
2021/05/19 02:25:19;;;;;;;10.37;9.00;;;;;;;;;;5045392;28;20190;-61
2021/05/19 02:27:46;;;;;;;12.10;9.03;;;;;;;;;;5042922;28;20202;-63
2021/05/19 02:30:21;;;;;;;12.43;8.60;;;;;;;;;;5041090;28;20199;-60
2021/05/19 02:32:47;;;;;;;10.87;9.03;;;;;;;;;;5043788;28;20185;-62
2021/05/19 02:35:18;;;;;;;8.57;7.13;;;;;;;;;;5046632;28;20551;-59
2021/05/19 02:37:44;;;;;;;7.13;6.03;;;;;;;;;;5046791;28;20220;-62
2021/05/19 02:40:14;;;;;;;8.33;6.87;;;;;;;;;;5039972;28;20194;-61
2021/05/19 02:42:43;;;;;;;8.93;6.77;;;;;;;;;;5042467;28;20265;-63
2021/05/19 02:45:12;;;;;;;7.37;5.87;;;;;;;;;;5042320;28;20190;-60
2021/05/19 02:47:45;;;;;;;8.67;5.03;;;;;;;;;;5038218;28;20183;-61
2021/05/19 02:50:16;;;;;;;10.03;8.07;;;;;;;;;;5042443;28;20201;-60
2021/05/19 02:52:41;;;;;;;8.27;6.80;;;;;;;;;;5043387;28;20768;-60
2021/05/19 02:55:09;;;;;;;10.03;6.00;;;;;;;;;;5045416;28;20195;-62
2021/05/19 02:57:39;;;;;;;8.43;6.23;;;;;;;;;;5043410;28;20205;-63
2021/05/19 03:00:07;;;;;;;9.27;7.37;;;;;;;;;;5039451;28;20204;-60
2021/05/19 03:02:35;;;;;;;12.20;8.57;;;;;;;;;;5044254;28;20198;-61
2021/05/19 03:05:03;;;;;;;12.67;9.07;;;;;;;;;;5040104;28;20930;-61
2021/05/19 03:07:28;;;;;;;11.90;9.67;;;;;;;;;;5049192;28;20705;-61
2021/05/19 03:09:58;;;;;;;13.23;9.37;;;;;;;;;;5053494;28;20205;-62
2021/05/19 03:12:26;;;;;;;13.53;9.27;;;;;;;;;;5045361;28;20619;-61
2021/05/19 03:14:51;;;;;;;10.73;8.47;;;;;;;;;;5052666;28;20739;-60
2021/05/19 03:17:16;;;;;;;11.50;8.10;;;;;;;;;;5043294;28;20225;-59
2021/05/19 03:19:44;;;;;;;11.30;8.10;;;;;;;;;;5042598;28;20194;-63
2021/05/19 03:22:09;;;;;;;14.97;8.33;;;;;;;;;;5045762;28;20267;-60
2021/05/19 03:24:37;;;;;;;13.73;8.90;;;;;;;;;;5048797;28;20774;-60
2021/05/19 03:27:05;;;;;;;11.10;8.67;;;;;;;;;;5037853;28;20290;-61
2021/05/19 03:29:33;;;;;;;10.27;8.37;;;;;;;;;;5042889;28;20201;-62
2021/05/19 03:31:58;;;;;;;13.87;8.27;;;;;;;;;;5038851;28;20203;-64
2021/05/19 03:34:24;;;;;;;12.67;9.53;;;;;;;;;;5047998;28;20262;-61
2021/05/19 03:36:49;;;;;;;10.93;8.70;;;;;;;;;;5039278;28;20190;-61
2021/05/19 03:39:19;;;;;;;11.20;9.20;;;;;;;;;;5042921;28;20239;-63
2021/05/19 03:41:46;;;;;;;10.27;8.60;;;;;;;;;;5047390;28;20200;-62
2021/05/19 03:44:14;;;;;;;10.90;9.20;;;;;;;;;;5043988;28;20196;-60
2021/05/19 03:46:39;;;;;;;14.90;10.77;;;;;;;;;;5037517;28;20193;-60
2021/05/19 03:49:09;;;;;;;12.67;9.40;;;;;;;;;;5039707;28;20571;-62
2021/05/19 03:51:37;;;;;;;15.03;9.03;;;;;;;;;;5046250;28;20259;-63
2021/05/19 03:54:05;;;;;;;14.77;9.83;;;;;;;;;;5043144;28;20741;-65
2021/05/19 03:56:33;;;;;;;11.97;9.00;;;;;;;;;;5044239;28;20235;-61
2021/05/19 03:58:58;;;;;;;12.67;9.57;;;;;;;;;;5040254;28;20266;-59
2021/05/19 04:01:26;;;;;;;13.93;9.43;;;;;;;;;;5047103;28;20264;-59
2021/05/19 04:03:53;;;;;;;10.67;8.67;;;;;;;;;;5037668;28;20758;-61
2021/05/19 04:06:22;;;;;;;10.17;8.30;;;;;;;;;;5040780;28;20794;-60
2021/05/19 04:08:55;;;;;;;11.33;8.57;;;;;;;;;;5036876;28;20306;-61
2021/05/19 04:11:22;;;;;;;13.73;9.00;;;;;;;;;;5041007;28;20568;-59
2021/05/19 04:13:50;;;;;;;11.73;9.00;;;;;;;;;;5037659;28;20216;-60
2021/05/19 04:16:20;;;;;;;11.03;9.23;;;;;;;;;;5038012;28;20320;-62
2021/05/19 04:18:47;;;;;;;11.13;9.07;;;;;;;;;;5039065;28;20179;-63
2021/05/19 04:21:15;;;;;;;12.17;9.10;;;;;;;;;;5045491;28;20685;-61
2021/05/19 04:23:40;;;;;;;13.30;10.37;;;;;;;;;;5038900;28;20202;-62
2021/05/19 04:26:08;;;;;;;11.47;9.03;;;;;;;;;;5043552;28;20186;-62
2021/05/19 04:28:34;;;;;;;14.27;9.30;;;;;;;;;;5038934;28;20270;-62
2021/05/19 04:30:59;;;;;;;13.43;9.70;;;;;;;;;;5039100;28;20210;-62
2021/05/19 04:33:27;;;;;;;14.13;9.50;;;;;;;;;;5045216;28;20194;-61
2021/05/19 04:35:57;;;;;;;13.07;9.77;;;;;;;;;;5039759;28;20221;-61
2021/05/19 04:38:23;;;;;;;14.27;9.90;;;;;;;;;;5046001;28;20708;-62
2021/05/19 04:40:50;;;;;;;14.13;9.67;;;;;;;;;;5045035;28;20205;-63
2021/05/19 04:43:18;;;;;;;13.03;9.97;;;;;;;;;;5043225;28;20197;-59
2021/05/19 04:45:43;;;;;;;12.73;9.93;;;;;;;;;;5043442;28;20251;-59
2021/05/19 04:48:10;;;;;;;13.53;9.77;;;;;;;;;;5045967;28;20681;-64
2021/05/19 04:50:39;;;;;;;11.90;10.33;;;;;;;;;;5037867;28;20221;-60
2021/05/19 04:53:07;;;;;;;12.27;10.13;;;;;;;;;;5041758;28;20243;-63
2021/05/19 04:55:37;;;;;;;14.27;10.37;;;;;;;;;;5045674;28;20701;-61
2021/05/19 04:58:04;;;;;;;12.13;10.27;;;;;;;;;;5040284;28;20633;-59
2021/05/19 05:00:33;;;;;;;14.07;11.17;;;;;;;;;;5039058;28;20861;-59
2021/05/19 05:03:01;;;;;;;14.83;10.90;;;;;;;;;;5045250;28;20198;-62
2021/05/19 05:05:31;;;;;;;14.03;10.43;;;;;;;;;;5044819;28;20185;-63
2021/05/19 05:07:58;;;;;;;14.30;11.07;;;;;;;;;;5039451;28;20202;-60
2021/05/19 05:10:24;;;;;;;12.93;10.17;;;;;;;;;;5039047;28;20600;-60
2021/05/19 05:12:51;;;;;;;15.93;10.40;;;;;;;;;;5042615;28;20194;-63
2021/05/19 05:15:18;;;;;;;16.77;11.47;;;;;;;;;;5041816;28;20197;-60
2021/05/19 05:17:44;;;;;;;11.67;9.80;;;;;;;;;;5046289;28;20259;-62
2021/05/19 05:20:12;;;;;;;14.27;10.57;;;;;;;;;;5045201;28;20227;-60
2021/05/19 05:22:38;;;;;;;13.47;9.73;;;;;;;;;;5046343;28;20192;-62
2021/05/19 05:25:04;;;;;;;12.03;10.07;;;;;;;;;;5046656;28;20251;-61
2021/05/19 05:27:31;;;;;;;13.90;10.33;;;;;;;;;;5047104;28;20247;-64
2021/05/19 05:30:01;;;;;;;12.17;10.03;;;;;;;;;;5043079;28;20206;-62
2021/05/19 05:32:27;;;;;;;11.53;9.43;;;;;;;;;;5047991;28;20205;-62
2021/05/19 05:34:52;;;;;;;11.63;10.37;;;;;;;;;;5048344;28;20194;-61
2021/05/19 05:37:24;;;;;;;10.57;9.27;;;;;;;;;;5045556;28;20895;-61
2021/05/19 05:39:52;;;;;;;15.13;9.97;;;;;;;;;;5047297;28;20300;-61
2021/05/19 05:42:20;;;;;;;12.03;9.73;;;;;;;;;;5043056;28;20210;-59
2021/05/19 05:44:48;;;;;;;13.00;10.67;;;;;;;;;;5042756;28;20222;-61
2021/05/19 05:47:15;;;;;;;14.30;11.07;;;;;;;;;;5043704;28;20344;-63
2021/05/19 05:49:45;;;;;;;14.40;11.07;;;;;;;;;;5026132;28;20623;-61
2021/05/19 05:52:10;;;;;;;16.03;11.27;;;;;;;;;;5041473;28;20225;-63
2021/05/19 05:54:38;;;;;;;14.67;11.13;;;;;;;;;;5045389;28;20595;-61
2021/05/19 05:57:07;;;;;;;16.70;12.00;;;;;;;;;;5045900;28;20189;-64
2021/05/19 05:59:32;;;;;;;15.83;12.43;;;;;;;;;;5053767;28;20180;-61
2021/05/19 06:02:00;;;;;;;16.93;12.30;;;;;;;;;;5046791;28;20210;-64
2021/05/19 06:04:25;;;;;;;17.37;13.47;;;;;;;;;;5046213;28;20725;-61
2021/05/19 06:06:53;;;;;;;21.33;13.40;;;;;;;;;;5042692;28;20214;-63
2021/05/19 06:09:18;;;;;;;17.63;13.53;;;;;;;;;;5053260;28;20282;-61
2021/05/19 06:11:48;;;;;;;17.30;12.50;;;;;;;;;;5049654;28;21788;-62
2021/05/19 06:14:18;;;;;;;19.73;13.90;;;;;;;;;;5050042;28;20856;-61
2021/05/19 06:16:46;;;;;;;18.13;13.23;;;;;;;;;;5042826;28;20302;-63
2021/05/19 06:19:13;;;;;;;20.93;13.70;;;;;;;;;;5043739;28;20229;-63
2021/05/19 06:21:39;;;;;;;16.97;13.17;;;;;;;;;;5047954;28;20213;-65
2021/05/19 06:24:05;;;;;;;19.97;13.13;;;;;;;;;;5046514;28;20194;-65
2021/05/19 06:26:31;;;;;;;19.20;14.00;;;;;;;;;;5039465;28;20183;-66
2021/05/19 06:29:03;;;;;;;19.90;14.07;;;;;;;;;;5039235;28;20256;-62
2021/05/19 06:31:31;;;;;;;19.27;13.53;;;;;;;;;;5046929;28;20225;-72
2021/05/19 06:34:01;;;;;;;19.00;14.40;;;;;;;;;;5045674;28;20240;-63
2021/05/19 06:36:26;;;;;;;20.40;15.03;;;;;;;;;;5036570;28;20198;-62
2021/05/19 06:38:56;;;;;;;19.83;15.40;;;;;;;;;;5043013;28;20634;-64
2021/05/19 06:41:24;;;;;;;20.70;15.87;;;;;;;;;;5043762;28;20224;-62
2021/05/19 06:43:54;;;;;;;26.27;16.07;;;;;;;;;;5045158;28;20265;-61
2021/05/19 06:46:21;;;;;;;21.07;15.97;;;;;;;;;;5049662;28;20213;-62
2021/05/19 06:48:54;;;;;;;18.57;15.57;;;;;;;;;;5042677;28;20648;-63
2021/05/19 06:51:29;;;;;;;19.63;14.70;;;;;;;;;;5042768;28;20213;-60
2021/05/19 06:53:55;;;;;;;20.80;15.13;;;;;;;;;;5042517;28;20248;-62
2021/05/19 06:56:20;;;;;;;20.97;15.37;;;;;;;;;;5040133;28;20202;-60
2021/05/19 06:58:46;;;;;;;18.63;15.97;;;;;;;;;;5032858;28;20223;-63
2021/05/19 07:01:16;;;;;;;19.83;14.70;;;;;;;;;;5038846;28;20229;-59
2021/05/19 07:03:41;;;;;;;19.63;15.63;;;;;;;;;;5047101;28;20198;-61
2021/05/19 07:06:08;;;;;;;19.43;15.80;;;;;;;;;;5046813;28;20197;-64
2021/05/19 07:08:36;;;;;;;19.57;14.30;;;;;;;;;;5043076;28;20209;-64
2021/05/19 07:11:04;;;;;;;19.93;14.37;;;;;;;;;;5040961;28;20218;-67
2021/05/19 07:13:31;;;;;;;18.50;14.93;;;;;;;;;;5041257;28;20271;-64
2021/05/19 07:15:57;;;;;;;18.73;14.37;;;;;;;;;;5032856;28;20629;-65
2021/05/19 07:18:22;;;;;;;15.47;13.53;;;;;;;;;;5039761;28;20217;-66
2021/05/19 07:20:52;;;;;;;15.50;12.97;;;;;;;;;;5039753;28;20202;-67
2021/05/19 07:23:20;;;;;;;14.50;13.00;;;;;;;;;;5040307;28;20642;-65
2021/05/19 07:25:50;;;;;;;17.20;14.47;;;;;;;;;;5038417;28;20194;-66
2021/05/19 07:28:16;;;;;;;17.80;14.17;;;;;;;;;;5039656;28;20214;-66
2021/05/19 07:30:47;;;;;;;16.30;13.90;;;;;;;;;;5043488;28;20220;-68
2021/05/19 07:33:15;;;;;;;15.50;13.67;;;;;;;;;;5039696;28;20227;-64
2021/05/19 07:35:41;;;;;;;15.37;13.07;;;;;;;;;;5042233;28;20268;-63
2021/05/19 07:38:10;;;;;;;16.67;14.87;;;;;;;;;;5038857;28;20189;-61
2021/05/19 07:40:38;;;;;;;17.30;15.52;;;;;;;;;;5047073;28;20263;-62
2021/05/19 07:43:08;;;;;;;20.57;18.40;;;;;;;;;;5043598;28;20603;-62
2021/05/19 07:45:36;;;;;;;19.37;17.37;;;;;;;;;;5042928;28;20244;-65
2021/05/19 07:48:02;;;;;;;17.77;15.97;;;;;;;;;;5044847;28;20201;-69
2021/05/19 07:50:32;;;;;;;18.23;15.73;;;;;;;;;;5045166;28;20201;-61
2021/05/19 07:52:58;;;;;;;20.30;18.10;;;;;;;;;;5043445;28;20193;-65
2021/05/19 07:55:29;;;;;;;20.53;17.73;;;;;;;;;;5043604;28;20492;-62
2021/05/19 08:03:17;;;;;;;18.43;16.50;;;;;;;;;;5021073;28;20666;-63
2021/05/19 08:05:44;;;;;;;19.47;17.37;;;;;;;;;;5048231;28;20267;-64
2021/05/19 08:08:09;;;;;;;21.17;18.97;;;;;;;;;;5050604;28;20216;-60
2021/05/19 08:10:37;;;;;;;17.58;15.25;;;;;;;;;;5055526;28;20644;-63
2021/05/19 08:13:09;;;;;;;17.45;15.65;;;;;;;;;;5036064;28;20269;-61
2021/05/19 08:15:34;;;;;;;16.38;14.45;;;;;;;;;;5045343;28;20198;-64
2021/05/19 08:18:02;;;;;;;15.98;13.98;;;;;;;;;;5052786;28;20186;-63
2021/05/19 08:20:27;;;;;;;15.05;13.63;;;;;;;;;;5043401;28;20747;-62
2021/05/19 08:22:55;;;;;;;16.00;14.55;;;;;;;;;;5040303;28;20189;-65
2021/05/19 08:25:22;;;;;;;14.43;13.02;;;;;;;;;;5038914;28;20193;-64
2021/05/19 08:27:51;;;;;;;13.15;11.93;;;;;;;;;;5048252;28;20271;-66
2021/05/19 08:30:22;;;;;;;14.57;13.27;;;;;;;;;;5048104;28;20244;-64
2021/05/19 08:32:52;;;;;;;14.73;13.38;;;;;;;;;;5043851;28;20217;-64
2021/05/19 08:35:19;;;;;;;15.25;13.68;;;;;;;;;;5040816;28;20280;-63
2021/05/19 08:37:45;;;;;;;14.13;12.93;;;;;;;;;;5038992;28;20669;-63
2021/05/19 08:40:13;;;;;;;13.35;12.07;;;;;;;;;;5046327;28;20198;-63
2021/05/19 08:42:41;;;;;;;13.45;12.32;;;;;;;;;;5041235;28;20182;-63
2021/05/19 08:45:09;;;;;;;14.35;13.05;;;;;;;;;;5035351;28;20685;-62
2021/05/19 08:47:39;;;;;;;13.10;11.90;;;;;;;;;;5045118;28;20755;-62
2021/05/19 08:50:13;;;;;;;12.40;11.27;;;;;;;;;;5041999;28;20194;-65
2021/05/19 08:52:40;;;;;;;12.55;11.25;;;;;;;;;;5042549;28;20189;-62
2021/05/19 08:55:17;;;;;;;12.77;11.48;;;;;;;;;;5043160;28;20193;-61
2021/05/19 08:57:45;;;;;;;12.45;11.15;;;;;;;;;;5038089;28;20190;-63
2021/05/19 09:00:16;;;;;;;10.82;9.93;;;;;;;;;;5032459;28;20186;-65
2021/05/19 09:03:13;;;;;;;8.98;8.07;;;;;;;;;;5040357;28;20200;-64
2021/05/19 09:05:42;;;;;;;6.93;6.22;;;;;;;;;;5032678;28;20174;-65
2021/05/19 09:08:13;;;;;;;6.60;5.28;;;;;;;;;;5040232;28;20705;-63
2021/05/19 09:10:42;;;;;;;5.28;4.78;;;;;;;;;;5043461;28;20217;-64
2021/05/19 09:13:27;;;;;;;5.93;5.10;;;;;;;;;;5037246;28;20273;-64
2021/05/19 09:15:53;;;;;;;6.38;5.47;;;;;;;;;;5041113;28;20208;-62
2021/05/19 09:18:18;;;;;;;4.57;4.05;;;;;;;;;;5039911;28;20753;-62
2021/05/19 09:20:48;;;;;;;5.50;3.95;;;;;;;;;;5041749;28;20267;-60
2021/05/19 09:23:22;;;;;;;5.60;4.32;;;;;;;;;;5042100;28;20194;-60
2021/05/19 09:26:10;;;;;;;5.07;4.13;;;;;;;;;;5045146;28;20182;-62
2021/05/19 09:28:35;;;;;;;5.03;4.15;;;;;;;;;;5041342;28;20201;-62
2021/05/19 09:31:00;;;;;;;6.25;5.15;;;;;;;;;;5040600;28;20713;-61
2021/05/19 09:33:31;;;;;;;4.53;4.13;;;;;;;;;;5045598;28;20680;-63
2021/05/19 09:36:09;;;;;;;5.35;4.05;;;;;;;;;;5034466;28;20321;-61
2021/05/19 09:38:35;;;;;;;4.78;3.75;;;;;;;;;;5033422;28;20178;-62
2021/05/19 09:41:32;;;;;;;6.25;4.70;;;;;;;;;;5039678;28;21419;-66
2021/05/19 09:43:59;;;;;;;4.88;4.38;;;;;;;;;;5039152;28;20261;-61
2021/05/19 09:49:16;;;;;;;4.30;3.90;;;;;;;;;;5037302;28;20270;-64
2021/05/19 09:51:49;;;;;;;4.55;4.00;;;;;;;;;;5043846;28;20210;-62
2021/05/19 09:54:34;;;;;;;4.05;3.65;;;;;;;;;;5042694;28;20179;-60
2021/05/19 09:57:07;;;;;;;5.00;4.50;;;;;;;;;;5038773;28;20178;-60
2021/05/19 09:59:33;;;;;;;5.60;4.20;;;;;;;;;;5038134;28;20186;-63
2021/05/19 10:02:02;;;;;;;4.43;3.78;;;;;;;;;;5032148;28;20658;-63
2021/05/19 10:04:54;;;;;;;5.35;4.10;;;;;;;;;;5049783;28;20174;-60
2021/05/19 10:07:16;;;;;;;6.85;2.97;;;;;;;;;;5038320;28;20583;-62
2021/05/19 10:09:46;;;;;;;4.85;3.25;;;;;;;;;;5042270;28;20224;-61
2021/05/19 10:12:17;;;;;;;4.35;3.28;;;;;;;;;;5047813;28;20211;-63
2021/05/19 10:14:43;;;;;;;3.50;3.20;;;;;;;;;;5048979;28;20628;-62
2021/05/19 10:17:13;;;;;;;4.63;2.90;;;;;;;;;;5036949;28;20179;-61
2021/05/19 10:19:42;;;;;;;4.03;3.40;;;;;;;;;;5046312;28;20228;-61
2021/05/19 10:22:15;;;;;;;4.30;3.03;;;;;;;;;;5050611;28;20217;-61
2021/05/19 10:24:53;;;;;;;4.22;3.60;;;;;;;;;;5046871;28;20182;-61
2021/05/19 10:27:19;;;;;;;4.78;3.55;;;;;;;;;;5046870;28;20208;-63
2021/05/19 10:29:55;;;;;;;4.85;3.30;;;;;;;;;;5040132;28;20187;-65
2021/05/19 10:32:21;;;;;;;4.57;4.13;;;;;;;;;;5046762;28;20236;-60
2021/05/19 10:34:47;;;;;;;3.97;3.40;;;;;;;;;;5041972;28;20183;-61
2021/05/19 10:37:30;;;;;;;3.67;3.38;;;;;;;;;;5039121;28;20181;-61
2021/05/19 10:40:15;;;;;;;3.95;3.22;;;;;;;;;;5044327;28;20596;-61
2021/05/19 10:42:43;;;;;;;3.67;3.03;;;;;;;;;;5046716;28;20277;-61
2021/05/19 10:45:13;;;;;;;3.45;2.60;;;;;;;;;;5052244;28;20197;-60
2021/05/19 10:47:48;;;;;;;3.28;2.33;;;;;;;;;;5048256;28;20639;-60
2021/05/19 10:50:38;;;;;;;3.10;2.60;;;;;;;;;;5048956;28;20213;-62
2021/05/19 10:59:02;;;;;;;3.67;2.92;;;;;;;;;;5048068;28;20282;-60
2021/05/19 11:01:52;;;;;;;3.45;2.83;;;;;;;;;;5045987;28;20240;-63
2021/05/19 11:04:22;;;;;;;3.28;2.75;;;;;;;;;;5045156;28;20190;-61
2021/05/19 11:06:56;;;;;;;3.47;2.70;;;;;;;;;;5044340;28;20316;-62
2021/05/19 11:09:23;;;;;;;3.00;2.53;;;;;;;;;;5048914;28;20623;-62
2021/05/19 11:11:49;;;;;;;3.03;2.72;;;;;;;;;;5038867;28;20205;-63
2021/05/19 11:14:44;;;;;;;3.10;2.10;;;;;;;;;;5044630;28;20197;-61
2021/05/19 11:17:22;;;;;;;2.95;2.65;;;;;;;;;;5049298;28;20653;-62
2021/05/19 11:19:50;;;;;;;4.25;2.47;;;;;;;;;;5042669;28;20182;-61
2021/05/19 11:22:22;;;;;;;2.97;2.67;;;;;;;;;;5042417;28;20210;-62
2021/05/19 11:24:54;;;;;;;2.28;2.00;;;;;;;;;;5048212;28;20190;-61
2021/05/19 11:27:26;;;;;;;2.67;2.20;;;;;;;;;;5044035;28;20229;-59
2021/05/19 11:29:51;;;;;;;3.35;2.25;;;;;;;;;;5044123;28;20192;-62
2021/05/19 11:32:19;;;;;;;2.25;1.90;;;;;;;;;;5039338;28;20215;-63
2021/05/19 11:34:47;;;;;;;3.45;2.45;;;;;;;;;;5046304;28;20263;-64
2021/05/19 11:37:15;;;;;;;2.50;2.30;;;;;;;;;;5040753;28;20186;-62
2021/05/19 11:39:47;;;;;;;3.53;2.13;;;;;;;;;;5040992;28;20190;-62
2021/05/19 11:42:17;;;;;;;2.85;2.28;;;;;;;;;;5042430;28;20321;-61
2021/05/19 11:44:54;;;;;;;4.82;2.35;;;;;;;;;;5046327;28;20198;-59
2021/05/19 11:47:31;;;;;;;3.15;1.90;;;;;;;;;;5042396;28;20231;-63
2021/05/19 11:50:23;;;;;;;2.05;1.80;;;;;;;;;;5048703;28;20715;-61
2021/05/19 11:52:59;;;;;;;2.67;1.90;;;;;;;;;;5044088;28;20193;-61
2021/05/19 11:55:45;;;;;;;2.38;1.80;;;;;;;;;;5046768;28;20182;-64
2021/05/19 11:58:24;;;;;;;4.90;2.38;;;;;;;;;;5045538;28;20235;-61
2021/05/19 12:01:02;;;;;;;2.17;1.92;;;;;;;;;;5043767;28;20202;-60
2021/05/19 12:03:31;;;;;;;2.97;2.00;;;;;;;;;;5040716;28;20587;-59
2021/05/19 12:06:04;;;;;;;4.40;2.20;;;;;;;;;;5037919;28;20220;-61
2021/05/19 12:08:45;;;;;;;3.50;2.30;;;;;;;;;;5042598;28;20887;-60
2021/05/19 12:11:20;;;;;;;4.13;2.20;;;;;;;;;;5040869;28;20213;-62
2021/05/19 12:14:01;;;;;;;2.30;2.10;;;;;;;;;;5025933;28;20569;-61
2021/05/19 12:16:38;;;;;;;4.72;2.70;;;;;;;;;;5042307;28;20178;-63
2021/05/19 12:19:26;;;;;;;3.38;2.85;;;;;;;;;;5045979;28;20176;-61
2021/05/19 12:22:05;;;;;;;3.70;2.78;;;;;;;;;;5046919;28;20251;-62
2021/05/19 12:24:36;;;;;;;4.25;2.35;;;;;;;;;;5047242;28;20216;-61
2021/05/19 12:27:06;;;;;;;3.75;2.63;;;;;;;;;;5047303;28;20210;-62
2021/05/19 12:29:36;;;;;;;2.78;2.10;;;;;;;;;;5047551;28;20228;-60
2021/05/19 12:32:15;;;;;;;1.88;1.60;;;;;;;;;;5040278;28;20584;-61
2021/05/19 12:34:45;;;;;;;2.28;2.08;;;;;;;;;;5040379;28;20189;-61
2021/05/19 12:37:13;;;;;;;3.22;2.00;;;;;;;;;;5041144;28;20253;-58
2021/05/19 12:39:43;;;;;;;4.45;2.00;;;;;;;;;;5049670;28;20193;-60
2021/05/19 12:42:20;;;;;;;2.83;1.83;;;;;;;;;;5045500;28;20202;-61
2021/05/19 12:44:56;;;;;;;3.33;1.50;;;;;;;;;;5044314;28;20227;-59
2021/05/19 12:47:24;;;;;;;5.55;2.22;;;;;;;;;;5043261;28;20197;-63
2021/05/19 12:50:03;;;;;;;4.28;2.10;;;;;;;;;;5045258;28;20197;-61
2021/05/19 12:52:30;;;;;;;2.72;1.63;;;;;;;;;;5042467;28;20275;-60
2021/05/19 12:55:01;;;;;;;3.05;1.85;;;;;;;;;;5043472;28;20659;-59
2021/05/19 12:57:34;;;;;;;2.40;2.08;;;;;;;;;;5043423;28;20247;-60
2021/05/19 13:00:09;;;;;;;2.88;2.10;;;;;;;;;;5046095;28;20193;-60
2021/05/19 13:02:40;;;;;;;2.78;1.77;;;;;;;;;;5047415;28;20609;-61
2021/05/19 13:05:07;;;;;;;2.63;1.90;;;;;;;;;;5044072;28;20186;-60
2021/05/19 13:07:32;;;;;;;3.13;1.70;;;;;;;;;;5043856;28;20210;-64
2021/05/19 13:10:14;;;;;;;2.00;1.50;;;;;;;;;;5047972;28;20217;-60
2021/05/19 13:13:21;;;;;;;4.60;1.58;;;;;;;;;;5045273;28;20203;-61
2021/05/19 13:15:59;;;;;;;3.30;1.25;;;;;;;;;;5043957;28;20251;-59
2021/05/19 13:18:50;;;;;;;2.07;1.40;;;;;;;;;;5042682;28;20201;-60
2021/05/19 13:21:24;;;;;;;2.33;1.50;;;;;;;;;;5039430;28;20210;-60
2021/05/19 13:23:52;;;;;;;1.60;1.30;;;;;;;;;;5046068;28;20815;-59
2021/05/19 13:26:25;;;;;;;1.33;1.13;;;;;;;;;;5037310;28;20210;-63
2021/05/19 13:28:55;;;;;;;3.47;1.20;;;;;;;;;;5045013;28;20340;-62
2021/05/19 13:31:22;;;;;;;2.07;1.30;;;;;;;;;;5044769;28;20216;-59
2021/05/19 13:34:04;;;;;;;3.47;2.10;;;;;;;;;;5047473;28;20197;-61
2021/05/19 13:36:43;;;;;;;4.30;2.03;;;;;;;;;;5043254;28;20206;-61
2021/05/19 13:39:20;;;;;;;3.47;2.00;;;;;;;;;;5047335;28;20676;-60
2021/05/19 13:41:52;;;;;;;3.53;1.60;;;;;;;;;;5048239;28;20209;-59
2021/05/19 13:44:21;;;;;;;2.37;1.60;;;;;;;;;;5044077;28;20240;-59
2021/05/19 13:46:49;;;;;;;2.60;1.50;;;;;;;;;;5032725;28;20185;-60
2021/05/19 13:49:35;;;;;;;3.60;1.47;;;;;;;;;;5049823;28;20202;-60
2021/05/19 13:52:06;;;;;;;1.30;1.20;;;;;;;;;;5047477;28;20216;-60
2021/05/19 13:54:40;;;;;;;3.87;1.30;;;;;;;;;;5028872;28;20205;-61
2021/05/19 13:57:08;;;;;;;3.87;1.60;;;;;;;;;;5051088;28;20223;-61
2021/05/19 13:59:35;;;;;;;1.73;1.30;;;;;;;;;;5045242;28;20193;-60
2021/05/19 14:02:01;;;;;;;1.57;1.10;;;;;;;;;;5046313;28;20210;-61
2021/05/19 14:04:27;;;;;;;2.27;1.50;;;;;;;;;;5037821;28;20701;-59
2021/05/19 14:06:54;;;;;;;1.40;1.30;;;;;;;;;;5045907;28;20191;-61
2021/05/19 14:09:23;;;;;;;1.53;1.30;;;;;;;;;;5048504;28;20654;-59
2021/05/19 14:12:05;;;;;;;1.93;1.30;;;;;;;;;;5042692;28;20296;-60
2021/05/19 14:17:10;;;;;;;1.50;1.23;;;;;;;;;;5047691;28;20252;-59
2021/05/19 14:20:05;;;;;;;1.27;1.17;;;;;;;;;;5044042;28;20197;-58
2021/05/19 14:27:44;;;;;;;4.93;1.47;;;;;;;;;;5048387;28;20276;-60
2021/05/19 14:30:13;;;;;;;1.13;1.03;;;;;;;;;;5051029;28;20213;-60
2021/05/19 14:32:38;;;;;;;3.80;1.57;;;;;;;;;;5047696;28;20197;-59
2021/05/19 14:35:10;;;;;;;1.20;1.10;;;;;;;;;;5047565;28;20203;-60
2021/05/19 14:59:37;;;;;;;1.53;1.37;;;;;;;;;;5041821;28;20264;-61
2021/05/19 15:02:02;;;;;;;1.57;1.10;;;;;;;;;;5042689;28;20221;-59
2021/05/19 15:04:30;;;;;;;1.30;1.07;;;;;;;;;;5047797;28;20186;-61
2021/05/19 15:06:58;;;;;;;1.27;1.00;;;;;;;;;;5049222;28;20217;-58
2021/05/19 15:09:27;;;;;;;1.20;0.83;;;;;;;;;;5046680;28;20639;-60
2021/05/19 15:11:53;;;;;;;0.80;0.80;;;;;;;;;;5041534;28;20220;-59
2021/05/19 15:14:20;;;;;;;0.83;0.83;;;;;;;;;;5048422;28;20276;-60
2021/05/19 15:16:46;;;;;;;0.90;0.80;;;;;;;;;;5047293;28;20770;-59
2021/05/19 15:19:14;;;;;;;2.10;0.90;;;;;;;;;;5046842;28;20182;-61
2021/05/19 15:21:42;;;;;;;1.07;0.97;;;;;;;;;;5042118;28;20267;-58
2021/05/19 15:24:08;;;;;;;1.13;1.00;;;;;;;;;;5047903;28;20670;-59
2021/05/19 15:26:36;;;;;;;1.37;1.00;;;;;;;;;;5043581;28;20192;-60
2021/05/19 15:29:07;;;;;;;1.10;1.00;;;;;;;;;;5040132;28;20271;-58
2021/05/19 15:31:36;;;;;;;1.20;1.10;;;;;;;;;;5048982;28;20277;-60
2021/05/19 15:34:04;;;;;;;1.10;1.00;;;;;;;;;;5048542;28;20248;-59